createdAt,value
2023-01-19T00:01:41.774Z,48.70
2023-01-19T00:04:25.464Z,48.70
2023-01-19T00:06:58.448Z,48.70
2023-01-19T00:09:38.964Z,48.70
2023-01-19T00:12:06.774Z,48.70
2023-01-19T00:14:40.228Z,48.60
2023-01-19T00:17:20.046Z,48.70
2023-01-19T00:19:52.952Z,48.60
2023-01-19T00:22:26.014Z,48.60
2023-01-19T00:24:56.007Z,48.60
2023-01-19T00:27:29.249Z,48.50
2023-01-19T00:30:00.958Z,48.60
2023-01-19T00:32:34.400Z,48.60
2023-01-19T00:35:15.078Z,48.60
2023-01-19T00:38:07.408Z,48.50
2023-01-19T00:40:49.460Z,48.50
2023-01-19T00:46:46.079Z,48.50
2023-01-19T00:49:15.472Z,48.60
2023-01-19T00:51:43.386Z,48.50
2023-01-19T00:54:21.200Z,48.50
2023-01-19T00:56:51.781Z,48.50
2023-01-19T00:59:29.989Z,48.50
2023-01-19T01:02:03.120Z,48.50
2023-01-19T01:04:39.808Z,48.50
2023-01-19T01:07:07.654Z,48.50
2023-01-19T01:09:44.501Z,48.40
2023-01-19T01:12:13.779Z,48.50
2023-01-19T01:14:50.012Z,48.20
2023-01-19T01:17:25.335Z,48.30
2023-01-19T01:20:10.375Z,48.30
2023-01-19T01:22:44.846Z,48.30
2023-01-19T01:25:15.690Z,48.30
2023-01-19T01:27:45.475Z,48.30
2023-01-19T01:30:24.492Z,48.30
2023-01-19T01:32:56.638Z,48.30
2023-01-19T01:35:32.598Z,48.30
2023-01-19T01:38:00.565Z,48.30
2023-01-19T01:40:48.629Z,48.30
2023-01-19T01:43:19.469Z,48.30
2023-01-19T01:45:47.819Z,48.30
2023-01-19T01:48:19.806Z,48.30
2023-01-19T01:51:11.898Z,48.30
2023-01-19T01:53:55.302Z,48.30
2023-01-19T01:56:30.900Z,48.10
2023-01-19T01:59:03.119Z,48.30
2023-01-19T02:01:49.050Z,48.20
2023-01-19T02:04:22.249Z,48.20
2023-01-19T02:07:08.093Z,48.20
2023-01-19T02:09:55.429Z,48.10
2023-01-19T02:12:41.872Z,48.20
2023-01-19T02:15:21.568Z,48.10
2023-01-19T02:17:52.410Z,48.20
2023-01-19T02:20:28.054Z,48.00
2023-01-19T02:23:13.780Z,48.10
2023-01-19T02:25:46.921Z,48.10
2023-01-19T02:28:20.269Z,48.10
2023-01-19T02:30:52.605Z,48.00
2023-01-19T02:33:25.473Z,48.00
2023-01-19T02:35:59.281Z,48.00
2023-01-19T02:38:31.140Z,48.00
2023-01-19T02:41:16.732Z,48.00
2023-01-19T02:44:02.214Z,47.90
2023-01-19T02:46:35.866Z,47.90
2023-01-19T02:49:12.222Z,47.90
2023-01-19T02:51:46.644Z,47.90
2023-01-19T02:54:29.105Z,47.90
2023-01-19T02:57:16.064Z,47.80
2023-01-19T03:00:06.563Z,47.90
2023-01-19T03:02:56.408Z,48.50
2023-01-19T03:05:37.220Z,47.90
2023-01-19T03:08:22.389Z,47.90
2023-01-19T03:11:06.642Z,47.90
2023-01-19T03:13:43.552Z,47.90
2023-01-19T03:16:21.213Z,47.80
2023-01-19T03:19:03.780Z,47.80
2023-01-19T03:21:43.105Z,47.70
2023-01-19T03:24:09.780Z,47.80
2023-01-19T03:26:37.834Z,47.60
2023-01-19T03:29:04.488Z,47.70
2023-01-19T03:31:31.672Z,47.70
2023-01-19T03:33:59.762Z,47.60
2023-01-19T03:36:34.332Z,47.70
2023-01-19T03:39:01.174Z,47.40
2023-01-19T03:41:28.229Z,47.50
2023-01-19T03:43:55.284Z,47.40
2023-01-19T03:46:22.493Z,47.40
2023-01-19T03:48:49.676Z,47.50
2023-01-19T03:51:16.366Z,47.40
2023-01-19T03:53:43.222Z,47.50
2023-01-19T03:56:19.960Z,47.50
2023-01-19T03:58:46.631Z,47.40
2023-01-19T04:01:14.027Z,47.40
2023-01-19T04:03:41.171Z,47.30
2023-01-19T04:06:08.366Z,47.40
2023-01-19T04:08:34.981Z,47.40
2023-01-19T04:11:01.629Z,47.40
2023-01-19T04:13:30.064Z,47.30
2023-01-19T04:16:01.083Z,47.30
2023-01-19T04:18:28.212Z,47.40
2023-01-19T04:20:55.447Z,47.30
2023-01-19T04:23:22.058Z,47.40
2023-01-19T04:25:48.749Z,47.30
2023-01-19T04:28:15.695Z,47.30
2023-01-19T04:30:42.289Z,47.30
2023-01-19T04:33:09.404Z,47.40
2023-01-19T04:35:36.552Z,47.40
2023-01-19T04:38:03.732Z,47.30
2023-01-19T04:40:31.947Z,47.30
2023-01-19T04:42:59.768Z,47.30
2023-01-19T04:45:27.191Z,47.30
2023-01-19T04:47:55.112Z,47.40
2023-01-19T04:50:22.194Z,47.30
2023-01-19T04:52:49.559Z,47.30
2023-01-19T04:55:16.679Z,47.30
2023-01-19T04:57:44.170Z,47.30
2023-01-19T05:00:11.409Z,47.30
2023-01-19T05:02:43.032Z,47.30
2023-01-19T05:05:10.282Z,47.30
2023-01-19T05:07:37.374Z,47.30
2023-01-19T05:10:04.882Z,47.30
2023-01-19T05:12:32.262Z,47.30
2023-01-19T05:14:59.371Z,47.30
2023-01-19T05:17:27.022Z,47.30
2023-01-19T05:19:54.275Z,47.30
2023-01-19T05:22:21.409Z,47.30
2023-01-19T05:24:48.694Z,47.30
2023-01-19T05:27:16.004Z,47.30
2023-01-19T05:29:42.914Z,47.30
2023-01-19T05:32:13.781Z,47.30
2023-01-19T05:34:41.309Z,47.30
2023-01-19T05:37:09.552Z,47.30
2023-01-19T05:39:36.750Z,47.30
2023-01-19T05:42:04.523Z,47.30
2023-01-19T05:44:31.811Z,47.30
2023-01-19T05:46:59.174Z,47.30
2023-01-19T05:49:26.336Z,47.30
2023-01-19T05:51:53.932Z,47.30
2023-01-19T05:54:21.511Z,47.30
2023-01-19T05:56:48.900Z,47.20
2023-01-19T05:59:18.431Z,47.30
2023-01-19T06:01:46.317Z,47.30
2023-01-19T06:04:14.833Z,47.30
2023-01-19T06:06:52.028Z,47.30
2023-01-19T06:09:21.482Z,47.30
2023-01-19T06:11:49.098Z,47.30
2023-01-19T06:14:21.456Z,47.00
2023-01-19T06:16:52.501Z,47.10
2023-01-19T06:19:20.091Z,46.80
2023-01-19T06:21:50.005Z,47.20
2023-01-19T06:24:27.464Z,47.40
2023-01-19T06:26:55.719Z,47.40
2023-01-19T06:29:29.857Z,47.40
2023-01-19T06:31:56.639Z,47.40
2023-01-19T06:34:29.274Z,47.40
2023-01-19T06:36:57.683Z,47.40
2023-01-19T06:39:25.313Z,47.30
2023-01-19T06:41:53.766Z,47.30
2023-01-19T06:44:21.845Z,47.30
2023-01-19T06:46:49.493Z,47.30
2023-01-19T06:49:20.769Z,47.30
2023-01-19T06:51:48.842Z,47.30
2023-01-19T06:54:16.790Z,47.30
2023-01-19T06:56:44.589Z,47.30
2023-01-19T06:59:13.067Z,47.40
2023-01-19T07:02:26.441Z,47.30
2023-01-19T07:04:56.644Z,47.30
2023-01-19T07:08:07.297Z,47.30
2023-01-19T07:11:25.361Z,47.30
2023-01-19T07:13:26.570Z,47.40
2023-01-19T07:15:55.249Z,47.30
2023-01-19T07:18:58.850Z,47.30
2023-01-19T07:21:51.852Z,47.30
2023-01-19T07:27:18.475Z,47.30
2023-01-19T07:29:45.179Z,47.30
2023-01-19T07:32:11.884Z,47.30
2023-01-19T07:34:38.587Z,47.30
2023-01-19T07:37:11.602Z,47.30
2023-01-19T07:39:44.533Z,47.30
2023-01-19T07:42:23.814Z,47.90
2023-01-19T07:45:05.108Z,47.30
2023-01-19T07:47:31.814Z,47.30
2023-01-19T07:50:11.166Z,47.30
2023-01-19T07:52:41.678Z,47.30
2023-01-19T07:55:14.769Z,47.30
2023-01-19T07:58:35.364Z,47.20
2023-01-19T08:01:14.764Z,47.30
2023-01-19T08:03:46.191Z,47.20
2023-01-19T08:06:18.867Z,47.30
2023-01-19T08:08:47.091Z,47.20
2023-01-19T08:11:16.655Z,47.30
2023-01-19T08:13:44.588Z,47.20
2023-01-19T08:16:18.089Z,47.10
2023-01-19T08:18:45.539Z,47.20
2023-01-19T08:21:13.488Z,47.10
2023-01-19T08:23:41.499Z,47.30
2023-01-19T08:26:22.839Z,47.10
2023-01-19T08:28:50.044Z,47.20
2023-01-19T08:31:29.662Z,47.10
2023-01-19T08:34:02.664Z,47.00
2023-01-19T08:36:29.436Z,47.00
2023-01-19T08:38:56.106Z,47.00
2023-01-19T08:41:29.097Z,47.00
2023-01-19T08:43:56.197Z,46.90
2023-01-19T08:46:23.382Z,46.90
2023-01-19T08:48:50.586Z,46.90
2023-01-19T08:51:17.625Z,46.80
2023-01-19T08:53:44.625Z,46.90
2023-01-19T08:56:36.805Z,46.80
2023-01-19T09:13:21.880Z,46.80
2023-01-19T09:15:48.623Z,46.80
2023-01-19T09:18:59.073Z,46.90
2023-01-19T09:25:35.334Z,46.90
2023-01-19T09:28:02.851Z,46.80
2023-01-19T09:30:29.806Z,46.90
2023-01-19T09:32:58.633Z,46.80
2023-01-19T09:38:52.902Z,46.80
2023-01-19T09:41:24.221Z,46.90
2023-01-19T09:43:56.170Z,46.80
2023-01-19T09:46:41.742Z,46.80
2023-01-19T09:49:11.738Z,46.80
2023-01-19T09:51:39.542Z,46.80
2023-01-19T09:54:13.424Z,46.80
2023-01-19T09:56:40.374Z,46.80
2023-01-19T09:59:15.385Z,46.80
2023-01-19T10:01:45.238Z,46.80
2023-01-19T10:04:30.842Z,46.80
2023-01-19T10:06:59.995Z,46.80
2023-01-19T10:09:29.755Z,46.80
2023-01-19T10:12:08.994Z,46.90
2023-01-19T10:14:43.461Z,46.70
2023-01-19T10:17:15.035Z,46.80
2023-01-19T10:19:42.540Z,46.70
2023-01-19T10:22:29.513Z,46.80
2023-01-19T10:24:57.182Z,46.80
2023-01-19T10:27:28.657Z,46.70
2023-01-19T10:29:55.527Z,46.90
2023-01-19T10:32:23.291Z,46.70
2023-01-19T10:34:50.460Z,46.80
2023-01-19T10:37:17.274Z,46.80
2023-01-19T10:39:48.410Z,46.70
2023-01-19T10:42:15.791Z,46.80
2023-01-19T10:44:42.483Z,46.70
2023-01-19T10:47:13.912Z,46.70
2023-01-19T10:49:42.810Z,46.80
2023-01-19T10:52:32.992Z,46.80
2023-01-19T10:55:00.506Z,46.70
2023-01-19T10:57:46.638Z,46.70
2023-01-19T11:00:33.671Z,46.80
2023-01-19T11:03:00.801Z,46.70
2023-01-19T11:05:28.422Z,46.80
2023-01-19T11:07:55.440Z,46.80
2023-01-19T11:10:22.653Z,46.80
2023-01-19T11:13:12.463Z,46.70
2023-01-19T11:15:45.309Z,46.70
2023-01-19T11:18:21.212Z,46.80
2023-01-19T11:20:51.525Z,46.70
2023-01-19T11:23:18.226Z,46.70
2023-01-19T11:25:45.942Z,46.70
2023-01-19T11:28:17.653Z,46.70
2023-01-19T11:30:53.800Z,46.70
2023-01-19T11:33:24.419Z,46.70
2023-01-19T11:35:51.697Z,46.80
2023-01-19T11:38:19.490Z,46.70
2023-01-19T11:40:56.326Z,46.70
2023-01-19T11:43:43.352Z,46.70
2023-01-19T11:46:21.455Z,46.70
2023-01-19T11:49:02.130Z,46.70
2023-01-19T11:51:30.788Z,46.70
2023-01-19T11:53:57.910Z,46.70
2023-01-19T11:56:26.467Z,46.70
2023-01-19T11:58:53.536Z,46.50
2023-01-19T12:01:22.324Z,46.60
2023-01-19T12:03:55.557Z,46.60
2023-01-19T12:06:24.025Z,46.70
2023-01-19T12:08:58.049Z,46.70
2023-01-19T12:11:32.705Z,46.70
2023-01-19T12:14:10.708Z,46.70
2023-01-19T12:16:37.741Z,46.70
2023-01-19T12:19:06.489Z,46.70
2023-01-19T12:21:33.422Z,46.70
2023-01-19T12:24:23.014Z,46.70
2023-01-19T12:26:59.373Z,46.70
2023-01-19T12:29:27.592Z,46.80
2023-01-19T12:32:13.158Z,47.30
2023-01-19T12:34:49.580Z,46.70
2023-01-19T12:37:28.935Z,46.70
2023-01-19T12:39:56.770Z,46.60
2023-01-19T12:42:23.480Z,46.70
2023-01-19T12:44:59.300Z,46.60
2023-01-19T12:47:27.265Z,46.70
2023-01-19T12:49:55.611Z,46.60
2023-01-19T12:52:22.292Z,46.70
2023-01-19T12:55:09.291Z,46.70
2023-01-19T12:57:37.877Z,46.70
2023-01-19T13:00:28.077Z,46.70
2023-01-19T13:02:55.474Z,46.70
2023-01-19T13:05:25.293Z,46.70
2023-01-19T13:08:07.893Z,46.70
2023-01-19T13:10:53.778Z,46.90
2023-01-19T13:13:24.135Z,46.70
2023-01-19T13:15:51.179Z,46.70
2023-01-19T13:18:18.979Z,46.70
2023-01-19T13:20:54.948Z,46.70
2023-01-19T13:23:28.515Z,46.70
2023-01-19T13:26:02.340Z,46.70
2023-01-19T13:28:33.205Z,46.70
2023-01-19T13:31:00.144Z,46.70
2023-01-19T13:33:29.044Z,46.70
2023-01-19T13:35:56.661Z,46.80
2023-01-19T13:38:23.753Z,46.60
2023-01-19T13:40:50.473Z,46.70
2023-01-19T13:43:24.513Z,46.60
2023-01-19T13:45:53.426Z,46.60
2023-01-19T13:48:22.279Z,46.70
2023-01-19T13:51:02.407Z,46.70
2023-01-19T13:53:30.447Z,46.70
2023-01-19T13:56:13.150Z,46.70
2023-01-19T13:58:40.023Z,46.70
2023-01-19T14:01:07.746Z,46.70
2023-01-19T14:03:34.521Z,46.60
2023-01-19T14:06:01.641Z,46.70
2023-01-19T14:08:28.448Z,46.60
2023-01-19T14:10:56.306Z,46.70
2023-01-19T14:13:23.124Z,46.60
2023-01-19T14:15:50.307Z,46.60
2023-01-19T14:18:17.131Z,46.70
2023-01-19T14:21:02.825Z,46.60
2023-01-19T14:23:35.831Z,46.70
2023-01-19T14:26:02.753Z,46.70
2023-01-19T14:28:29.941Z,46.70
2023-01-19T14:31:00.573Z,46.70
2023-01-19T14:33:34.108Z,46.70
2023-01-19T14:36:10.959Z,46.70
2023-01-19T14:38:39.501Z,46.70
2023-01-19T14:41:06.454Z,46.80
2023-01-19T14:43:33.160Z,46.70
2023-01-19T14:45:59.877Z,46.70
2023-01-19T14:48:29.483Z,46.80
2023-01-19T14:51:03.801Z,46.70
2023-01-19T14:53:33.809Z,46.70
2023-01-19T14:56:01.031Z,46.60
2023-01-19T14:58:28.055Z,47.30
2023-01-19T15:00:55.953Z,46.70
2023-01-19T15:03:26.840Z,46.70
2023-01-19T15:06:00.067Z,46.60
2023-01-19T15:08:26.789Z,46.70
2023-01-19T15:10:53.727Z,46.70
2023-01-19T15:13:24.107Z,46.40
2023-01-19T15:15:50.904Z,46.60
2023-01-19T15:18:19.522Z,46.60
2023-01-19T15:20:46.261Z,46.50
2023-01-19T15:23:13.025Z,46.60
2023-01-19T15:25:39.799Z,46.60
2023-01-19T15:28:13.493Z,46.60
2023-01-19T15:30:40.349Z,46.60
2023-01-19T15:33:08.700Z,46.60
2023-01-19T15:35:35.392Z,46.70
2023-01-19T15:38:02.081Z,46.60
2023-01-19T15:40:28.775Z,46.60
2023-01-19T15:42:55.633Z,46.60
2023-01-19T15:45:25.481Z,46.60
2023-01-19T15:47:52.176Z,46.80
2023-01-19T15:50:20.146Z,46.70
2023-01-19T15:52:46.811Z,46.70
2023-01-19T15:55:15.953Z,46.70
2023-01-19T15:57:42.670Z,46.70
2023-01-19T16:00:09.655Z,46.70
2023-01-19T16:02:36.717Z,46.70
2023-01-19T16:05:03.549Z,46.70
2023-01-19T16:07:30.291Z,46.60
2023-01-19T16:09:56.966Z,46.70
2023-01-19T16:12:23.683Z,46.70
2023-01-19T16:14:50.388Z,46.70
2023-01-19T16:17:17.040Z,46.60
2023-01-19T16:19:43.725Z,46.80
2023-01-19T16:22:11.110Z,46.70
2023-01-19T16:24:37.803Z,46.70
2023-01-19T16:27:04.505Z,46.70
2023-01-19T16:29:31.380Z,46.70
2023-01-19T16:31:58.212Z,46.50
2023-01-19T16:34:25.475Z,46.70
2023-01-19T16:36:52.265Z,46.70
2023-01-19T16:39:19.016Z,46.60
2023-01-19T16:41:45.767Z,46.70
2023-01-19T16:44:12.832Z,46.40
2023-01-19T16:46:40.204Z,46.70
2023-01-19T16:49:11.800Z,46.70
2023-01-19T16:51:38.523Z,46.60
2023-01-19T16:54:05.402Z,46.70
2023-01-19T16:56:32.117Z,46.50
2023-01-19T16:58:59.034Z,46.70
2023-01-19T17:01:26.428Z,46.70
2023-01-19T17:03:53.197Z,46.70
2023-01-19T17:06:20.463Z,46.70
2023-01-19T17:08:47.315Z,46.70
2023-01-19T17:11:19.493Z,46.50
2023-01-19T17:13:54.040Z,46.50
2023-01-19T17:16:21.128Z,46.80
2023-01-19T17:18:47.851Z,46.70
2023-01-19T17:21:17.977Z,46.70
2023-01-19T17:23:48.250Z,46.80
2023-01-19T17:26:14.933Z,46.70
2023-01-19T17:28:44.819Z,46.80
2023-01-19T17:31:18.345Z,46.80
2023-01-19T17:33:45.461Z,46.80
2023-01-19T17:36:13.087Z,46.90
2023-01-19T17:38:51.935Z,46.80
2023-01-19T17:41:22.575Z,47.00
2023-01-19T17:43:52.350Z,46.90
2023-01-19T17:46:19.632Z,46.90
2023-01-19T17:48:56.294Z,47.00
2023-01-19T17:51:23.152Z,46.80
2023-01-19T17:53:49.947Z,47.10
2023-01-19T17:56:17.113Z,46.90
2023-01-19T17:58:44.268Z,47.00
2023-01-19T18:01:22.262Z,47.00
2023-01-19T18:03:49.089Z,47.00
2023-01-19T18:06:15.772Z,47.30
2023-01-19T18:08:43.054Z,47.00
2023-01-19T18:11:09.849Z,47.10
2023-01-19T18:13:36.823Z,47.10
2023-01-19T18:16:07.189Z,47.10
2023-01-19T18:18:33.944Z,47.30
2023-01-19T18:21:01.180Z,47.10
2023-01-19T18:23:27.928Z,47.30
2023-01-19T18:25:58.458Z,47.10
2023-01-19T18:28:25.159Z,47.20
2023-01-19T18:30:51.878Z,47.20
2023-01-19T18:33:18.642Z,47.10
2023-01-19T18:35:45.499Z,47.30
2023-01-19T18:38:12.162Z,47.10
2023-01-19T18:40:40.235Z,47.30
2023-01-19T18:43:07.310Z,47.30
2023-01-19T18:45:34.009Z,47.30
2023-01-19T18:48:01.181Z,47.40
2023-01-19T18:50:27.764Z,47.30
2023-01-19T18:52:54.368Z,47.40
2023-01-19T18:55:20.948Z,47.40
2023-01-19T18:57:48.832Z,47.50
2023-01-19T19:00:15.623Z,47.90
2023-01-19T19:02:42.269Z,47.80
2023-01-19T19:05:09.172Z,48.10
2023-01-19T19:07:37.557Z,48.10
2023-01-19T19:10:04.592Z,48.00
2023-01-19T19:12:31.206Z,48.20
2023-01-19T19:14:57.805Z,48.00
2023-01-19T19:17:24.546Z,48.00
2023-01-19T19:19:51.131Z,47.90
2023-01-19T19:22:17.767Z,48.00
2023-01-19T19:24:44.381Z,48.00
2023-01-19T19:27:14.253Z,47.90
2023-01-19T19:29:41.403Z,48.00
2023-01-19T19:32:07.986Z,47.90
2023-01-19T19:34:34.570Z,47.90
2023-01-19T19:37:01.502Z,47.90
2023-01-19T19:39:28.481Z,47.90
2023-01-19T19:41:55.370Z,48.00
2023-01-19T19:44:22.061Z,47.80
2023-01-19T19:46:48.835Z,48.00
2023-01-19T19:49:21.483Z,47.90
2023-01-19T19:51:48.666Z,48.00
2023-01-19T19:54:15.347Z,48.00
2023-01-19T19:56:42.310Z,48.50
2023-01-19T19:59:08.898Z,48.60
2023-01-19T20:01:35.893Z,48.50
2023-01-19T20:04:12.061Z,48.70
2023-01-19T20:06:39.886Z,48.70
2023-01-19T20:09:10.615Z,48.20
2023-01-19T20:11:37.347Z,48.30
2023-01-19T20:14:04.627Z,48.20
2023-01-19T20:16:31.199Z,48.30
2023-01-19T20:18:57.815Z,48.40
2023-01-19T20:21:25.413Z,48.40
2023-01-19T20:23:53.011Z,48.50
2023-01-19T20:26:20.694Z,48.40
2023-01-19T20:28:47.603Z,48.50
2023-01-19T20:31:21.258Z,48.40
2023-01-19T20:33:48.045Z,48.40
2023-01-19T20:36:14.726Z,48.40
2023-01-19T20:38:41.489Z,48.20
2023-01-19T20:41:08.473Z,48.10
2023-01-19T20:43:35.081Z,47.90
2023-01-19T20:46:01.922Z,48.40
2023-01-19T20:48:28.633Z,48.30
2023-01-19T20:50:58.952Z,48.20
2023-01-19T20:53:25.582Z,48.30
2023-01-19T20:55:52.193Z,48.10
2023-01-19T20:58:18.783Z,48.20
2023-01-19T21:00:45.451Z,48.20
2023-01-19T21:03:12.077Z,48.10
2023-01-19T21:05:38.723Z,48.20
2023-01-19T21:08:05.808Z,48.10
2023-01-19T21:10:32.471Z,48.20
2023-01-19T21:12:59.072Z,48.20
2023-01-19T21:15:25.743Z,48.20
2023-01-19T21:17:52.419Z,48.30
2023-01-19T21:20:19.452Z,48.20
2023-01-19T21:22:46.252Z,48.20
2023-01-19T21:25:12.972Z,48.30
2023-01-19T21:27:39.676Z,48.30
2023-01-19T21:30:06.573Z,48.30
2023-01-19T21:32:33.146Z,48.20
2023-01-19T21:34:59.936Z,48.30
2023-01-19T21:37:28.828Z,48.10
2023-01-19T21:39:55.401Z,48.20
2023-01-19T21:42:22.082Z,48.20
2023-01-19T21:44:49.069Z,48.10
2023-01-19T21:47:15.756Z,48.30
2023-01-19T21:49:42.400Z,48.00
2023-01-19T21:52:09.029Z,48.20
2023-01-19T21:54:35.622Z,48.10
2023-01-19T21:57:02.882Z,48.10
2023-01-19T21:59:29.569Z,48.30
2023-01-19T22:01:56.649Z,48.10
2023-01-19T22:04:23.399Z,48.20
2023-01-19T22:06:50.059Z,48.20
2023-01-19T22:09:16.726Z,48.10
2023-01-19T22:11:43.314Z,48.20
2023-01-19T22:14:11.423Z,48.00
2023-01-19T22:16:38.158Z,48.10
2023-01-19T22:19:07.338Z,48.10
2023-01-19T22:21:35.703Z,48.00
2023-01-19T22:24:02.937Z,48.00
2023-01-19T22:26:29.845Z,48.00
2023-01-19T22:28:57.082Z,48.00
2023-01-19T22:31:24.114Z,48.00
2023-01-19T22:33:51.449Z,48.00
2023-01-19T22:36:28.185Z,48.00
2023-01-19T22:38:58.484Z,48.10
2023-01-19T22:41:25.956Z,48.00
2023-01-19T22:43:53.255Z,48.10
2023-01-19T22:46:27.135Z,48.10
2023-01-19T22:48:54.025Z,48.10
2023-01-19T22:51:20.874Z,48.00
2023-01-19T22:53:47.630Z,48.00
2023-01-19T22:56:18.250Z,48.00
2023-01-19T22:58:45.224Z,48.00
2023-01-19T23:01:12.599Z,47.90
2023-01-19T23:03:39.557Z,47.90
2023-01-19T23:06:13.756Z,48.00
2023-01-19T23:08:40.511Z,47.90
2023-01-19T23:11:07.875Z,47.90
2023-01-19T23:13:34.672Z,47.90
2023-01-19T23:16:01.423Z,47.90
2023-01-19T23:18:28.684Z,47.90
2023-01-19T23:20:55.572Z,47.90
2023-01-19T23:23:22.329Z,48.00
2023-01-19T23:25:49.005Z,48.00
2023-01-19T23:28:15.757Z,48.00
2023-01-19T23:30:42.604Z,48.00
2023-01-19T23:33:09.358Z,47.90
2023-01-19T23:35:36.072Z,48.00
2023-01-19T23:38:03.051Z,47.80
2023-01-19T23:40:29.754Z,47.90
2023-01-19T23:42:56.617Z,47.90
2023-01-19T23:45:23.418Z,47.80
2023-01-19T23:47:50.229Z,47.90
2023-01-19T23:50:17.634Z,47.90
2023-01-19T23:52:44.324Z,47.90
2023-01-19T23:55:11.208Z,47.90
2023-01-19T23:57:38.290Z,47.90
